createdAt,value
2018-07-04T00:00:26.525Z,45.15
2018-07-04T00:01:36.704Z,45.34
2018-07-04T00:02:46.923Z,45.44
2018-07-04T00:03:57.149Z,45.34
2018-07-04T00:05:07.319Z,45.34
2018-07-04T00:06:17.578Z,45.25
2018-07-04T00:07:28.062Z,45.22
2018-07-04T00:08:38.007Z,45.34
2018-07-04T00:09:48.275Z,45.34
2018-07-04T00:10:58.589Z,45.53
2018-07-04T00:12:08.767Z,45.63
2018-07-04T00:13:19.082Z,45.25
2018-07-04T00:14:29.516Z,45.51
2018-07-04T00:15:39.643Z,45.53
2018-07-04T00:16:49.795Z,45.61
2018-07-04T00:17:59.954Z,45.9
2018-07-04T00:19:10.114Z,45.9
2018-07-04T00:20:20.335Z,45.9
2018-07-04T00:21:30.459Z,46.09
2018-07-04T00:22:40.345Z,46.19
2018-07-04T00:23:50.017Z,46.28
2018-07-04T00:25:00.202Z,46.09
2018-07-04T00:26:10.460Z,45.8
2018-07-04T00:27:20.642Z,46.28
2018-07-04T00:28:30.518Z,46.28
2018-07-04T00:29:40.673Z,46.67
2018-07-04T00:30:50.814Z,46.47
2018-07-04T00:32:00.974Z,46.67
2018-07-04T00:33:11.138Z,46.93
2018-07-04T00:34:21.033Z,46.93
2018-07-04T00:35:31.253Z,46.93
2018-07-04T00:36:41.536Z,46.84
2018-07-04T00:37:51.701Z,46.93
2018-07-04T00:39:01.877Z,47.41
2018-07-04T00:40:11.742Z,47.31
2018-07-04T00:41:21.884Z,47.13
2018-07-04T00:42:32.231Z,47.03
2018-07-04T00:43:42.352Z,47.13
2018-07-04T00:44:52.479Z,47.13
2018-07-04T00:46:02.680Z,47.22
2018-07-04T00:47:12.886Z,47.22
2018-07-04T00:48:23.229Z,47.7
2018-07-04T00:49:33.083Z,47.8
2018-07-04T00:50:43.210Z,47.89
2018-07-04T00:51:53.394Z,47.89
2018-07-04T00:53:03.584Z,47.89
2018-07-04T00:54:13.779Z,47.8
2018-07-04T00:55:24.013Z,47.99
2018-07-04T00:56:34.174Z,48.18
2018-07-04T00:57:44.392Z,48.28
2018-07-04T00:58:54.448Z,48.76
2018-07-04T01:00:04.630Z,48.45
2018-07-04T01:01:14.792Z,48.57
2018-07-04T01:02:24.913Z,48.35
2018-07-04T01:03:35.078Z,48.35
2018-07-04T01:04:45.223Z,48.35
2018-07-04T01:05:55.508Z,48.57
2018-07-04T01:07:05.674Z,48.95
2018-07-04T01:08:16.869Z,48.66
2018-07-04T01:09:27.137Z,48.95
2018-07-04T01:10:37.336Z,49.05
2018-07-04T01:11:46.956Z,48.76
2018-07-04T01:12:57.125Z,48.85
2018-07-04T01:14:07.335Z,49.02
2018-07-04T01:15:17.220Z,48.85
2018-07-04T01:16:27.453Z,49.05
2018-07-04T01:17:37.681Z,48.95
2018-07-04T01:18:47.576Z,48.57
2018-07-04T01:19:57.337Z,48.74
2018-07-04T01:21:07.492Z,48.83
2018-07-04T01:22:17.627Z,49.02
2018-07-04T01:23:27.835Z,49.02
2018-07-04T01:24:38.187Z,49.31
2018-07-04T01:25:48.405Z,49.22
2018-07-04T01:26:58.277Z,49.31
2018-07-04T01:28:08.395Z,48.93
2018-07-04T01:29:18.268Z,49.31
2018-07-04T01:30:28.446Z,49.51
2018-07-04T01:31:39.563Z,49.22
2018-07-04T01:32:49.713Z,49.6
2018-07-04T01:33:59.850Z,49.6
2018-07-04T01:35:10.017Z,49.51
2018-07-04T01:36:20.292Z,49.89
2018-07-04T01:37:30.213Z,49.69
2018-07-04T01:38:39.991Z,50.27
2018-07-04T01:39:50.162Z,50.46
2018-07-04T01:41:00.298Z,50.08
2018-07-04T01:42:10.480Z,50.18
2018-07-04T01:43:20.626Z,50.18
2018-07-04T01:44:30.862Z,50.27
2018-07-04T01:45:41.090Z,50.46
2018-07-04T01:46:51.220Z,50.37
2018-07-04T01:48:01.352Z,50.08
2018-07-04T01:49:11.000Z,50.18
2018-07-04T01:50:21.119Z,50.34
2018-07-04T01:51:31.254Z,50.44
2018-07-04T01:52:41.532Z,51.02
2018-07-04T01:53:51.677Z,51.04
2018-07-04T01:55:01.870Z,51.02
2018-07-04T01:56:12.203Z,50.82
2018-07-04T01:57:22.061Z,51.04
2018-07-04T01:58:31.830Z,51.02
2018-07-04T01:59:41.713Z,51.02
2018-07-04T02:00:51.888Z,51.31
2018-07-04T02:02:02.074Z,51.21
2018-07-04T02:03:12.256Z,51.11
2018-07-04T02:04:22.368Z,51.4
2018-07-04T02:05:32.556Z,51.5
2018-07-04T02:06:42.718Z,51.31
2018-07-04T02:07:52.919Z,51.59
2018-07-04T02:09:03.183Z,51.5
2018-07-04T02:10:13.445Z,51.31
2018-07-04T02:11:23.565Z,51.5
2018-07-04T02:12:33.723Z,51.5
2018-07-04T02:13:43.684Z,51.98
2018-07-04T02:14:54.189Z,51.88
2018-07-04T02:16:04.387Z,51.98
2018-07-04T02:17:15.514Z,52.08
2018-07-04T02:18:28.143Z,52.36
2018-07-04T02:19:39.496Z,52.46
2018-07-04T02:20:49.392Z,52.14
2018-07-04T02:21:59.001Z,52.53
2018-07-04T02:23:08.884Z,52.43
2018-07-04T02:24:19.017Z,52.62
2018-07-04T02:25:29.200Z,52.43
2018-07-04T02:26:39.544Z,52.34
2018-07-04T02:27:49.515Z,52.43
2018-07-04T02:28:59.702Z,52.91
2018-07-04T02:30:09.907Z,52.62
2018-07-04T02:31:20.434Z,52.72
2018-07-04T02:32:30.204Z,52.91
2018-07-04T02:33:40.339Z,53.11
2018-07-04T02:34:51.441Z,53.3
2018-07-04T02:36:01.644Z,53.11
2018-07-04T02:37:11.871Z,53.11
2018-07-04T02:38:21.743Z,53.68
2018-07-04T02:39:31.609Z,53.49
2018-07-04T02:40:41.478Z,53.39
2018-07-04T02:41:51.412Z,53.58
2018-07-04T02:43:01.537Z,54.25
2018-07-04T02:44:11.747Z,54.13
2018-07-04T02:45:21.868Z,53.66
2018-07-04T02:46:31.828Z,53.75
2018-07-04T02:47:41.709Z,53.85
2018-07-04T02:48:51.916Z,54.13
2018-07-04T02:50:02.194Z,54.52
2018-07-04T02:51:12.373Z,54.42
2018-07-04T02:52:22.558Z,54.23
2018-07-04T02:53:32.899Z,54.33
2018-07-04T02:54:43.024Z,54.13
2018-07-04T02:55:53.158Z,54.52
2018-07-04T02:57:03.354Z,54.9
2018-07-04T02:58:13.116Z,54.61
2018-07-04T02:59:23.007Z,54.42
2018-07-04T03:00:33.122Z,54.71
2018-07-04T03:01:43.244Z,54.61
2018-07-04T03:02:53.411Z,54.52
2018-07-04T03:04:03.287Z,54.52
2018-07-04T03:05:13.662Z,54.61
2018-07-04T03:06:23.815Z,54.71
2018-07-04T03:07:34.037Z,54.71
2018-07-04T03:08:44.155Z,54.33
2018-07-04T03:09:54.521Z,55.29
2018-07-04T03:11:04.370Z,55.1
2018-07-04T03:12:14.234Z,55.1
2018-07-04T03:13:23.906Z,55.19
2018-07-04T03:14:34.082Z,55.29
2018-07-04T03:15:44.289Z,55.19
2018-07-04T03:16:54.556Z,55
2018-07-04T03:18:04.721Z,55.38
2018-07-04T03:19:14.865Z,55.38
2018-07-04T03:20:25.253Z,55.47
2018-07-04T03:21:35.628Z,55.47
2018-07-04T03:22:45.778Z,55.35
2018-07-04T03:23:57.128Z,55.45
2018-07-04T03:25:07.281Z,55.38
2018-07-04T03:26:17.421Z,55.77
2018-07-04T03:27:27.757Z,55.64
2018-07-04T03:28:37.891Z,55.83
2018-07-04T03:29:47.744Z,55.55
2018-07-04T03:30:57.882Z,55.64
2018-07-04T03:32:08.019Z,55.74
2018-07-04T03:33:18.194Z,55.57
2018-07-04T03:34:28.332Z,56.22
2018-07-04T03:35:38.221Z,56.22
2018-07-04T03:36:48.373Z,56.22
2018-07-04T03:37:57.908Z,56.12
2018-07-04T03:39:08.194Z,56.22
2018-07-04T03:40:18.008Z,56.31
2018-07-04T03:41:28.253Z,56.22
2018-07-04T03:42:38.108Z,56.22
2018-07-04T03:43:48.274Z,56.31
2018-07-04T03:44:58.454Z,56.7
2018-07-04T03:46:08.685Z,56.41
2018-07-04T03:47:18.943Z,56.22
2018-07-04T03:48:28.592Z,56.51
2018-07-04T03:49:38.735Z,56.7
2018-07-04T03:50:48.965Z,56.79
2018-07-04T03:51:59.143Z,56.6
2018-07-04T03:53:09.340Z,56.41
2018-07-04T03:54:20.086Z,56.79
2018-07-04T03:55:30.309Z,56.89
2018-07-04T03:56:40.479Z,56.7
2018-07-04T03:57:50.601Z,56.51
2018-07-04T03:59:00.743Z,56.98
2018-07-04T04:00:10.861Z,56.79
2018-07-04T04:01:21.014Z,56.7
2018-07-04T04:02:31.434Z,56.89
2018-07-04T04:03:41.793Z,56.98
2018-07-04T04:04:52.034Z,56.79
2018-07-04T04:06:02.154Z,56.7
2018-07-04T04:07:12.105Z,56.89
2018-07-04T04:08:22.395Z,57.37
2018-07-04T04:09:32.611Z,57.56
2018-07-04T04:10:42.751Z,57.28
2018-07-04T04:11:52.903Z,57.56
2018-07-04T04:13:03.023Z,57.28
2018-07-04T04:14:13.143Z,57.4
2018-07-04T04:15:24.283Z,57.18
2018-07-04T04:16:34.441Z,57.11
2018-07-04T04:17:44.622Z,57.4
2018-07-04T04:18:54.998Z,57.3
2018-07-04T04:20:05.141Z,57.5
2018-07-04T04:21:15.373Z,57.4
2018-07-04T04:22:25.531Z,57.3
2018-07-04T04:23:35.742Z,57.3
2018-07-04T04:24:45.890Z,57.3
2018-07-04T04:25:56.100Z,57.21
2018-07-04T04:27:06.471Z,57.5
2018-07-04T04:28:16.837Z,57.3
2018-07-04T04:29:26.976Z,57.21
2018-07-04T04:30:37.157Z,57.21
2018-07-04T04:31:47.311Z,57.21
2018-07-04T04:32:57.533Z,57.4
2018-07-04T04:34:07.694Z,57.3
2018-07-04T04:35:17.921Z,57.21
2018-07-04T04:36:28.311Z,57.3
2018-07-04T04:37:38.499Z,57.3
2018-07-04T04:38:48.385Z,57.4
2018-07-04T04:39:58.337Z,57.21
2018-07-04T04:41:08.209Z,57.3
2018-07-04T04:42:17.973Z,57.4
2018-07-04T04:43:28.310Z,57.4
2018-07-04T04:44:38.430Z,57.4
2018-07-04T04:45:49.280Z,57.52
2018-07-04T04:46:59.441Z,57.23
2018-07-04T04:48:09.806Z,57.33
2018-07-04T04:49:19.998Z,57.52
2018-07-04T04:50:30.126Z,57.23
2018-07-04T04:51:40.245Z,57.52
2018-07-04T04:52:50.380Z,56.95
2018-07-04T04:54:00.511Z,56.85
2018-07-04T04:55:10.808Z,56.95
2018-07-04T04:56:21.020Z,56.59
2018-07-04T04:57:31.360Z,56.59
2018-07-04T04:58:41.495Z,56.78
2018-07-04T04:59:51.715Z,56.88
2018-07-04T05:01:01.845Z,56.49
2018-07-04T05:02:12.083Z,56.11
2018-07-04T05:03:22.044Z,56.4
2018-07-04T05:04:31.903Z,56.3
2018-07-04T05:05:42.237Z,55.53
2018-07-04T05:06:52.483Z,55.63
2018-07-04T05:08:02.789Z,55.82
2018-07-04T05:09:12.966Z,55.76
2018-07-04T05:10:23.348Z,55.66
2018-07-04T05:11:33.477Z,55.66
2018-07-04T05:12:43.612Z,55.56
2018-07-04T05:13:53.499Z,55.27
2018-07-04T05:15:03.354Z,55.56
2018-07-04T05:16:13.484Z,55.56
2018-07-04T05:17:23.612Z,55.27
2018-07-04T05:18:33.743Z,55.27
2018-07-04T05:19:44.889Z,54.99
2018-07-04T05:20:54.795Z,54.5
2018-07-04T05:22:05.004Z,54.79
2018-07-04T05:23:14.876Z,54.91
2018-07-04T05:24:25.022Z,54.72
2018-07-04T05:25:35.167Z,54.72
2018-07-04T05:26:45.313Z,54.63
2018-07-04T05:27:55.199Z,54.82
2018-07-04T05:29:05.387Z,54.24
2018-07-04T05:30:15.556Z,54.53
2018-07-04T05:31:25.739Z,54.34
2018-07-04T05:32:35.615Z,54.14
2018-07-04T05:33:45.500Z,54.08
2018-07-04T05:34:55.628Z,54.08
2018-07-04T05:36:05.848Z,54.27
2018-07-04T05:37:16.074Z,54.17
2018-07-04T05:38:26.203Z,53.5
2018-07-04T05:39:36.507Z,53.31
2018-07-04T05:40:46.415Z,53.5
2018-07-04T05:41:57.410Z,53.5
2018-07-04T05:43:07.304Z,53.5
2018-07-04T05:44:17.450Z,53.59
2018-07-04T05:45:27.436Z,53.31
2018-07-04T05:46:37.611Z,53.78
2018-07-04T05:47:47.526Z,53.4
2018-07-04T05:48:57.670Z,53.72
2018-07-04T05:50:08.819Z,53.59
2018-07-04T05:51:19.942Z,53.72
2018-07-04T05:52:29.719Z,53.43
2018-07-04T05:53:40.215Z,53.62
2018-07-04T05:54:50.339Z,53.43
2018-07-04T05:56:00.461Z,53.53
2018-07-04T05:57:10.672Z,54.2
2018-07-04T05:58:20.805Z,53.53
2018-07-04T05:59:31.055Z,54.1
2018-07-04T06:00:41.234Z,54.2
2018-07-04T06:01:51.556Z,54.39
2018-07-04T06:03:01.800Z,54.3
2018-07-04T06:04:11.938Z,53.81
2018-07-04T06:05:22.084Z,53.72
2018-07-04T06:06:32.369Z,53.43
2018-07-04T06:07:42.203Z,53.36
2018-07-04T06:08:52.458Z,53.27
2018-07-04T06:10:02.643Z,52.97
2018-07-04T06:11:12.523Z,52.59
2018-07-04T06:12:22.641Z,52.97
2018-07-04T06:13:32.780Z,52.87
2018-07-04T06:14:42.924Z,52.59
2018-07-04T06:15:53.096Z,52.11
2018-07-04T06:17:03.503Z,52.49
2018-07-04T06:18:13.667Z,52.4
2018-07-04T06:19:23.917Z,52.2
2018-07-04T06:20:34.043Z,52.01
2018-07-04T06:21:44.313Z,51.65
2018-07-04T06:22:54.202Z,51.56
2018-07-04T06:24:05.091Z,51.84
2018-07-04T06:25:15.235Z,51.46
2018-07-04T06:26:25.409Z,51.46
2018-07-04T06:27:35.576Z,51.36
2018-07-04T06:28:45.702Z,51.17
2018-07-04T06:29:55.905Z,50.78
2018-07-04T06:31:06.089Z,50.59
2018-07-04T06:32:16.251Z,50.49
2018-07-04T06:33:26.650Z,50.69
2018-07-04T06:34:36.809Z,50.21
2018-07-04T06:35:46.976Z,50.3
2018-07-04T06:36:57.249Z,50.4
2018-07-04T06:38:07.408Z,50.11
2018-07-04T06:39:17.637Z,50.4
2018-07-04T06:40:27.857Z,50.23
2018-07-04T06:41:37.765Z,50.23
2018-07-04T06:42:48.079Z,50.23
2018-07-04T06:43:58.197Z,49.84
2018-07-04T06:45:08.074Z,49.94
2018-07-04T06:46:18.223Z,49.84
2018-07-04T06:47:28.267Z,49.77
2018-07-04T06:48:38.465Z,49.65
2018-07-04T06:49:48.646Z,49.39
2018-07-04T06:50:58.798Z,49.29
2018-07-04T06:52:09.086Z,49.1
2018-07-04T06:53:19.317Z,49.29
2018-07-04T06:54:29.704Z,49.39
2018-07-04T06:55:40.180Z,49.39
2018-07-04T06:56:50.452Z,49.19
2018-07-04T06:58:00.761Z,48.81
2018-07-04T06:59:10.920Z,48.81
2018-07-04T07:00:20.796Z,49.1
2018-07-04T07:01:30.948Z,49.1
2018-07-04T07:02:41.104Z,49.1
2018-07-04T07:03:50.972Z,49.1
2018-07-04T07:05:01.107Z,49.39
2018-07-04T07:06:11.233Z,49.29
2018-07-04T07:07:21.432Z,48.74
2018-07-04T07:08:31.271Z,48.81
2018-07-04T07:09:41.882Z,48.61
2018-07-04T07:10:52.094Z,48.83
2018-07-04T07:12:03.230Z,48.61
2018-07-04T07:13:13.091Z,48.61
2018-07-04T07:14:23.636Z,48.06
2018-07-04T07:15:34.035Z,47.87
2018-07-04T07:16:44.270Z,48.06
2018-07-04T07:17:54.683Z,47.87
2018-07-04T07:19:04.823Z,47.87
2018-07-04T07:20:14.943Z,47.48
2018-07-04T07:21:24.808Z,47.67
2018-07-04T07:22:34.936Z,47.96
2018-07-04T07:23:45.116Z,47.96
2018-07-04T07:24:55.323Z,47.38
2018-07-04T07:26:05.576Z,47.22
2018-07-04T07:27:15.448Z,47.22
2018-07-04T07:28:25.578Z,47.31
2018-07-04T07:29:35.730Z,47.5
2018-07-04T07:30:45.880Z,47.12
2018-07-04T07:31:56.259Z,47.12
2018-07-04T07:33:06.030Z,46.54
2018-07-04T07:34:16.494Z,46.44
2018-07-04T07:35:27.349Z,46.64
2018-07-04T07:36:37.636Z,46.06
2018-07-04T07:37:47.547Z,46.34
2018-07-04T07:38:57.698Z,46.54
2018-07-04T07:40:07.885Z,46.44
2018-07-04T07:41:18.021Z,46.34
2018-07-04T07:42:29.133Z,46.27
2018-07-04T07:43:39.275Z,46.17
2018-07-04T07:44:49.547Z,46.17
2018-07-04T07:45:59.705Z,45.98
2018-07-04T07:47:09.613Z,45.69
2018-07-04T07:48:19.531Z,45.89
2018-07-04T07:49:29.695Z,45.98
2018-07-04T07:50:39.844Z,45.89
2018-07-04T07:51:50.177Z,45.79
2018-07-04T07:53:00.348Z,45.5
2018-07-04T07:54:09.922Z,45.72
2018-07-04T07:55:20.815Z,45.31
2018-07-04T07:56:30.951Z,45.42
2018-07-04T07:57:42.068Z,45.62
2018-07-04T07:58:52.193Z,45.62
2018-07-04T08:00:02.149Z,44.94
2018-07-04T08:01:12.316Z,45.04
2018-07-04T08:02:22.464Z,44.94
2018-07-04T08:03:32.620Z,44.65
2018-07-04T08:04:42.813Z,44.67
2018-07-04T08:05:52.899Z,44.77
2018-07-04T08:07:03.542Z,44.57
2018-07-04T08:08:13.676Z,44.67
2018-07-04T08:09:23.853Z,44.38
2018-07-04T08:10:34.066Z,44.38
2018-07-04T08:11:44.277Z,44.48
2018-07-04T08:12:54.731Z,44.57
2018-07-04T08:14:04.856Z,44.19
2018-07-04T08:15:14.731Z,42.83
2018-07-04T08:16:24.942Z,42.66
2018-07-04T08:17:35.196Z,42.96
2018-07-04T08:18:45.277Z,42.37
2018-07-04T08:19:55.821Z,42.08
2018-07-04T08:21:06.015Z,41.5
2018-07-04T08:22:16.204Z,41.11
2018-07-04T08:23:26.417Z,41.6
2018-07-04T08:24:36.311Z,41.31
2018-07-04T08:25:46.203Z,41.02
2018-07-04T08:26:56.351Z,40.94
2018-07-04T08:28:06.516Z,40.75
2018-07-04T08:29:16.662Z,40.84
2018-07-04T08:30:26.820Z,40.75
2018-07-04T08:31:36.964Z,40.48
2018-07-04T08:32:46.873Z,40.19
2018-07-04T08:33:57.979Z,40.38
2018-07-04T08:35:08.145Z,40.19
2018-07-04T08:36:18.354Z,39.9
2018-07-04T08:37:28.554Z,39.62
2018-07-04T08:38:38.993Z,39.62
2018-07-04T08:39:49.121Z,39.72
2018-07-04T08:40:59.280Z,38.87
2018-07-04T08:42:09.427Z,38.58
2018-07-04T08:43:19.587Z,37.51
2018-07-04T08:44:29.720Z,37.82
2018-07-04T08:45:39.964Z,37.05
2018-07-04T08:46:50.135Z,36.76
2018-07-04T08:48:00.275Z,36.68
2018-07-04T08:49:10.448Z,36.48
2018-07-04T08:50:20.657Z,36
2018-07-04T08:51:31.005Z,35.43
2018-07-04T08:52:41.266Z,35.05
2018-07-04T08:53:51.674Z,34.46
2018-07-04T08:55:02.023Z,34.48
2018-07-04T08:56:11.908Z,34.09
2018-07-04T08:57:21.864Z,33.91
2018-07-04T08:58:32.098Z,33.62
2018-07-04T08:59:42.653Z,33.34
2018-07-04T09:00:52.819Z,32.67
2018-07-04T09:02:03.039Z,32.49
2018-07-04T09:03:14.855Z,31.93
2018-07-04T09:04:25.082Z,30.8
2018-07-04T09:05:35.423Z,29.56
2018-07-04T09:06:45.524Z,28.52
2018-07-04T09:07:55.917Z,27.76
2018-07-04T09:09:06.082Z,27.97
2018-07-04T09:10:16.273Z,26.92
2018-07-04T09:11:26.556Z,26.16
2018-07-04T09:12:36.873Z,25.88
2018-07-04T09:13:47.000Z,25.31
2018-07-04T09:14:57.166Z,24.84
2018-07-04T09:16:07.328Z,24.46
2018-07-04T09:17:17.732Z,23.67
2018-07-04T09:18:28.000Z,23.09
2018-07-04T09:19:38.161Z,22.91
2018-07-04T09:20:48.351Z,22.52
2018-07-04T09:21:58.717Z,22.24
2018-07-04T09:23:08.642Z,21.75
2018-07-04T09:24:18.269Z,21.46
2018-07-04T09:25:28.410Z,20.97
2018-07-04T09:26:38.564Z,20
2018-07-04T09:27:48.732Z,20.2
2018-07-04T09:28:58.921Z,20.2
2018-07-04T09:30:09.162Z,19.32
2018-07-04T09:31:19.053Z,19.34
2018-07-04T09:32:30.327Z,18.73
2018-07-04T09:33:42.079Z,18.63
2018-07-04T09:34:58.688Z,18.54
2018-07-04T09:36:14.642Z,18.74
2018-07-04T09:37:25.624Z,18.54
2018-07-04T09:38:35.880Z,17.95
2018-07-04T09:39:47.035Z,18.15
2018-07-04T09:40:57.246Z,17.76
2018-07-04T09:42:07.392Z,18.05
2018-07-04T09:43:17.776Z,17.57
2018-07-04T09:44:30.214Z,17.57
2018-07-04T09:45:40.156Z,17.47
2018-07-04T09:46:51.284Z,17.27
2018-07-04T09:48:01.439Z,16.48
2018-07-04T09:49:11.742Z,16.78
2018-07-04T09:50:21.957Z,16.67
2018-07-04T09:51:32.342Z,16.77
2018-07-04T09:52:42.509Z,16.76
2018-07-04T09:53:52.674Z,16.56
2018-07-04T09:55:30.534Z,16.28
2018-07-04T09:56:42.114Z,16.38
2018-07-04T09:57:52.464Z,16.47
2018-07-04T09:59:02.007Z,16.36
2018-07-04T10:00:12.177Z,15.78
2018-07-04T10:01:22.089Z,15.98
2018-07-04T10:02:33.444Z,15.98
2018-07-04T10:03:43.606Z,15.78
2018-07-04T10:04:53.802Z,15.88
2018-07-04T10:06:04.172Z,15.69
2018-07-04T10:07:14.165Z,15.79
2018-07-04T10:08:24.341Z,16.09
2018-07-04T10:09:34.511Z,15.89
2018-07-04T10:10:44.664Z,15.79
2018-07-04T10:11:54.824Z,15.79
2018-07-04T10:13:05.029Z,15.78
2018-07-04T10:14:15.229Z,15.47
2018-07-04T10:15:25.467Z,15.67
2018-07-04T10:16:35.625Z,16.05
2018-07-04T10:17:45.853Z,16.33
2018-07-04T10:18:56.038Z,16.33
2018-07-04T10:20:06.211Z,16.63
2018-07-04T10:21:16.468Z,16.44
2018-07-04T10:22:26.664Z,16.35
2018-07-04T10:23:36.907Z,16.45
2018-07-04T10:24:47.127Z,16.24
2018-07-04T10:25:57.317Z,16.74
2018-07-04T10:27:07.462Z,16.44
2018-07-04T10:28:17.708Z,16.45
2018-07-04T10:29:28.008Z,16.45
2018-07-04T10:30:37.663Z,16.35
2018-07-04T10:31:47.891Z,16.25
2018-07-04T10:32:58.100Z,16.06
2018-07-04T10:34:08.332Z,15.77
2018-07-04T10:35:18.562Z,15.28
2018-07-04T10:36:29.010Z,15.26
2018-07-04T10:37:38.911Z,15.36
2018-07-04T10:38:49.215Z,15.17
2018-07-04T10:39:59.467Z,15.17
2018-07-04T10:41:09.669Z,15.47
2018-07-04T10:42:19.885Z,15.56
2018-07-04T10:43:30.102Z,15.28
2018-07-04T10:44:41.262Z,14.69
2018-07-04T10:45:51.743Z,14.48
2018-07-04T10:47:01.905Z,14.48
2018-07-04T10:48:12.082Z,14
2018-07-04T10:49:22.338Z,14.09
2018-07-04T10:50:32.503Z,14.1
2018-07-04T10:51:42.877Z,13.9
2018-07-04T10:52:53.039Z,13.8
2018-07-04T10:54:03.227Z,13.42
2018-07-04T10:55:14.389Z,13.61
2018-07-04T10:56:24.615Z,13.32
2018-07-04T10:57:34.785Z,13.51
2018-07-04T10:58:45.044Z,13.32
2018-07-04T10:59:54.777Z,13.51
2018-07-04T11:01:05.044Z,13.6
2018-07-04T11:02:15.237Z,13.6
2018-07-04T11:03:25.420Z,13.6
2018-07-04T11:04:35.843Z,13.51
2018-07-04T11:05:46.453Z,13.71
2018-07-04T11:06:56.690Z,14
2018-07-04T11:08:06.859Z,13.9
2018-07-04T11:09:17.274Z,13.91
2018-07-04T11:10:27.533Z,13.91
2018-07-04T11:11:37.457Z,13.32
2018-07-04T11:12:47.676Z,13.52
2018-07-04T11:13:57.632Z,13.32
2018-07-04T11:15:07.865Z,13.23
2018-07-04T11:16:17.840Z,12.83
2018-07-04T11:17:28.072Z,13.23
2018-07-04T11:18:38.326Z,13.42
2018-07-04T11:19:48.291Z,13.42
2018-07-04T11:20:58.500Z,13.52
2018-07-04T11:22:08.660Z,13.32
2018-07-04T11:23:18.615Z,13.32
2018-07-04T11:24:28.797Z,13.42
2018-07-04T11:25:38.957Z,13.12
2018-07-04T11:26:49.110Z,13.51
2018-07-04T11:27:59.032Z,13.51
2018-07-04T11:29:09.283Z,13.51
2018-07-04T11:30:19.519Z,13.21
2018-07-04T11:31:29.726Z,13.42
2018-07-04T11:32:39.948Z,12.73
2018-07-04T11:33:49.905Z,13.51
2018-07-04T11:34:59.841Z,13.21
2018-07-04T11:36:10.024Z,13.21
2018-07-04T11:37:20.300Z,13.31
2018-07-04T11:38:30.614Z,13.41
2018-07-04T11:39:40.858Z,13.51
2018-07-04T11:40:51.125Z,13.51
2018-07-04T11:42:01.337Z,13.41
2018-07-04T11:43:11.556Z,13.51
2018-07-04T11:44:21.773Z,13.21
2018-07-04T11:45:32.923Z,13.02
2018-07-04T11:46:43.138Z,13.12
2018-07-04T11:47:53.380Z,12.92
2018-07-04T11:49:03.558Z,13.21
2018-07-04T11:50:13.802Z,13.32
2018-07-04T11:51:23.970Z,13.51
2018-07-04T11:52:34.196Z,13.21
2018-07-04T11:53:44.427Z,13.41
2018-07-04T11:54:54.604Z,13.6
2018-07-04T11:56:04.768Z,13.41
2018-07-04T11:57:14.944Z,13.51
2018-07-04T11:58:25.182Z,13.41
2018-07-04T11:59:35.344Z,13.42
2018-07-04T12:00:45.512Z,12.92
2018-07-04T12:01:55.758Z,13.21
2018-07-04T12:03:05.921Z,13.31
2018-07-04T12:04:15.759Z,13.21
2018-07-04T12:05:25.868Z,13.21
2018-07-04T12:06:36.468Z,13.11
2018-07-04T12:07:46.781Z,13.41
2018-07-04T12:08:57.008Z,13.21
2018-07-04T12:10:07.260Z,13.31
2018-07-04T12:11:17.416Z,13.31
2018-07-04T12:12:27.649Z,13.41
2018-07-04T12:13:37.866Z,13.31
2018-07-04T12:14:49.117Z,13.31
2018-07-04T12:15:59.279Z,13.21
2018-07-04T12:17:09.465Z,13.21
2018-07-04T12:18:19.640Z,13.51
2018-07-04T12:19:29.850Z,12.92
2018-07-04T12:20:40.032Z,12.82
2018-07-04T12:21:50.252Z,12.92
2018-07-04T12:23:00.571Z,12.92
2018-07-04T12:24:10.796Z,13.31
2018-07-04T12:25:20.988Z,13.2
2018-07-04T12:26:30.912Z,13.5
2018-07-04T12:27:41.280Z,13.6
2018-07-04T12:28:51.685Z,13.79
2018-07-04T12:30:01.859Z,13.49
2018-07-04T12:31:12.027Z,13.4
2018-07-04T12:32:22.314Z,13.79
2018-07-04T12:33:32.487Z,13.4
2018-07-04T12:34:42.788Z,13.29
2018-07-04T12:35:52.976Z,13.98
2018-07-04T12:37:02.877Z,13.88
2018-07-04T12:38:13.175Z,13.68
2018-07-04T12:39:23.353Z,13.88
2018-07-04T12:40:33.559Z,14.07
2018-07-04T12:41:43.917Z,13.97
2018-07-04T12:42:53.781Z,13.67
2018-07-04T12:44:04.083Z,14.36
2018-07-04T12:45:14.294Z,14.25
2018-07-04T12:46:23.685Z,14.25
2018-07-04T12:47:33.868Z,14.45
2018-07-04T12:48:44.042Z,14.25
2018-07-04T12:49:54.194Z,14.25
2018-07-04T12:51:04.197Z,14.34
2018-07-04T12:52:14.279Z,14.24
2018-07-04T12:53:24.712Z,14.23
2018-07-04T12:54:35.043Z,14.72
2018-07-04T12:55:45.821Z,14.62
2018-07-04T12:56:55.975Z,14.9
2018-07-04T12:58:06.161Z,14.71
2018-07-04T12:59:16.463Z,14.8
2018-07-04T13:00:26.831Z,14.9
2018-07-04T13:01:37.982Z,15
2018-07-04T13:02:48.144Z,15.39
2018-07-04T13:03:58.423Z,15.09
2018-07-04T13:05:08.530Z,15.39
2018-07-04T13:06:18.481Z,15.09
2018-07-04T13:07:28.704Z,15.39
2018-07-04T13:08:38.912Z,15.69
2018-07-04T13:09:49.088Z,15.39
2018-07-04T13:10:59.062Z,15
2018-07-04T13:12:09.331Z,15.39
2018-07-04T13:13:19.506Z,15.09
2018-07-04T13:14:29.685Z,15.58
2018-07-04T13:15:39.955Z,15.19
2018-07-04T13:16:50.244Z,14.8
2018-07-04T13:18:00.447Z,15
2018-07-04T13:19:10.379Z,15.09
2018-07-04T13:20:20.693Z,15.09
2018-07-04T13:21:30.883Z,15
2018-07-04T13:22:41.033Z,14.61
2018-07-04T13:23:51.193Z,14.7
2018-07-04T13:25:01.115Z,14.61
2018-07-04T13:26:11.291Z,14.22
2018-07-04T13:27:21.450Z,14.22
2018-07-04T13:28:31.637Z,13.92
2018-07-04T13:29:41.836Z,14.61
2018-07-04T13:30:51.988Z,14.41
2018-07-04T13:32:02.211Z,14.22
2018-07-04T13:33:12.923Z,14.11
2018-07-04T13:34:23.166Z,14.4
2018-07-04T13:35:33.430Z,14.4
2018-07-04T13:36:43.621Z,14.5
2018-07-04T13:37:53.776Z,14.5
2018-07-04T13:39:03.956Z,14.5
2018-07-04T13:40:14.126Z,14.4
2018-07-04T13:41:24.423Z,14.7
2018-07-04T13:42:34.694Z,14.4
2018-07-04T13:43:44.875Z,14.69
2018-07-04T13:44:55.136Z,14.69
2018-07-04T13:46:05.361Z,14.39
2018-07-04T13:47:15.533Z,14.78
2018-07-04T13:48:25.779Z,14.68
2018-07-04T13:49:35.614Z,14.87
2018-07-04T13:50:45.953Z,15.16
2018-07-04T13:51:55.935Z,15.08
2018-07-04T13:53:06.126Z,15.06
2018-07-04T13:54:16.377Z,15.08
2018-07-04T13:55:26.626Z,15.27
2018-07-04T13:56:36.887Z,15.76
2018-07-04T13:57:46.817Z,15.08
2018-07-04T13:58:56.986Z,15.08
2018-07-04T14:00:08.177Z,15.28
2018-07-04T14:01:17.873Z,15.28
2018-07-04T14:02:28.074Z,14.69
2018-07-04T14:03:38.494Z,15.08
2018-07-04T14:04:50.310Z,15.28
2018-07-04T14:06:00.540Z,14.79
2018-07-04T14:07:10.737Z,14.89
2018-07-04T14:08:20.942Z,14.79
2018-07-04T14:09:31.083Z,14.79
2018-07-04T14:10:41.249Z,14.89
2018-07-04T14:11:51.466Z,14.49
2018-07-04T14:13:01.878Z,14.79
2018-07-04T14:14:12.099Z,15.28
2018-07-04T14:15:22.290Z,15.08
2018-07-04T14:16:32.472Z,14.98
2018-07-04T14:17:42.658Z,14.59
2018-07-04T14:18:52.878Z,14.69
2018-07-04T14:20:03.294Z,14.29
2018-07-04T14:21:13.475Z,14.29
2018-07-04T14:22:23.438Z,13.8
2018-07-04T14:23:33.583Z,13.9
2018-07-04T14:24:43.760Z,14.19
2018-07-04T14:25:53.921Z,14
2018-07-04T14:27:04.063Z,13.7
2018-07-04T14:28:13.896Z,13.41
2018-07-04T14:29:24.084Z,13.31
2018-07-04T14:30:34.005Z,13.89
2018-07-04T14:31:44.186Z,13.41
2018-07-04T14:32:54.085Z,13.31
2018-07-04T14:34:04.376Z,13.31
2018-07-04T14:35:14.363Z,13.31
2018-07-04T14:36:24.519Z,13.7
2018-07-04T14:37:34.682Z,13.9
2018-07-04T14:38:44.948Z,13.8
2018-07-04T14:39:55.076Z,13.8
2018-07-04T14:41:05.236Z,13.9
2018-07-04T14:42:15.394Z,14.29
2018-07-04T14:43:25.665Z,14.19
2018-07-04T14:44:35.894Z,14.29
2018-07-04T14:45:46.328Z,14.09
2018-07-04T14:46:56.332Z,14.19
2018-07-04T14:48:06.575Z,14.39
2018-07-04T14:49:16.789Z,14.29
2018-07-04T14:50:26.696Z,14.39
2018-07-04T14:51:36.858Z,14.48
2018-07-04T14:52:47.065Z,14.78
2018-07-04T14:53:57.331Z,14.29
2018-07-04T14:55:07.513Z,14.29
2018-07-04T14:56:17.680Z,14.29
2018-07-04T14:57:27.922Z,14.38
2018-07-04T14:58:37.735Z,14.09
2018-07-04T14:59:47.661Z,14.28
2018-07-04T15:00:57.824Z,13.8
2018-07-04T15:02:08.175Z,13.4
2018-07-04T15:03:18.231Z,13.51
2018-07-04T15:04:28.856Z,13.5
2018-07-04T15:05:39.693Z,13.89
2018-07-04T15:06:49.246Z,13.7
2018-07-04T15:07:59.425Z,14.28
2018-07-04T15:09:09.323Z,14.28
2018-07-04T15:10:19.364Z,14.28